Forside
METAR-TAF:

METAR-TAF

Lufthavne :

Changchun Longjia International Airport

Changchun, Kina

Breddekreds: 43-54N, længdekreds: 125-13E, højde: 238 m

Aktuelle vejr

Denne rapport blev lavet for 25 minutter siden, kl. 20:00 UTC
Vind 6 kt fra sydsydvest, varierende mellem sydsydøst og vestsydvest
Temperatur 21°C
Fugtighed 100%
Tryk 999 hPa
Sigt 10 km eller mere
Nogle få skyer i en højde af 600 ft
Spredte skyer i en højde af 3000 ft

METAR: ZYCC 222000Z 20003MPS 160V240 9999 FEW006 SCT030 21/21 Q0999 NOSIG

Tid: 04:25 (20:25 UTC)

Vejrudsigter

Denne rapport blev lavet for 5 timer og 24 minutter siden, kl. 15:01 UTC
Foreløbig gælder fra 22 på 18 UTC til 23 på 18 UTC
Vind 8 kt fra sydsydvest
Sigt: 5000 m
Brudte skyer i en højde af 3000 ft
dis
Midlertidig
fra 22 på 18 UTC til 22 på 21 UTC
Nogle få skyer i en højde af 2000 ft, Cumulonimbus.
Brudte skyer i en højde af 2000 ft
tordenbyger, let regn,

TAF: ZYCC 221501Z 2218/2318 21004MPS 5000 BR BKN030 TX26/2306Z TN21/2218Z TEMPO 2218/2221 -TSRA FEW020CB BKN020

Vejrobservationer og prognoser fra mere end 4000 lufthavne (METAR og TAF).

De gule og røde prikker repræsenterer de meteorologiske stationer.

Flyt musen over at se navnet på stationen.

Så klik over at se vejr observationer og prognoser.

At skifte det kort: Klik på de grønne knapper med et sort kors for at zoome ind; på den grønne knap med en bindestreg for at zoome ud; eller på de grønne pile for tilstødende kort.


METAR-TAF: